sensor_id;sensor_type;location;lat;lon;timestamp;temperature;humidity
31661;DHT22;18267;52.234;7.444;2023-08-08T00:01:41;14.50;99.90
31661;DHT22;18267;52.234;7.444;2023-08-08T00:04:09;14.50;99.90
31661;DHT22;18267;52.234;7.444;2023-08-08T00:06:35;14.50;99.90
31661;DHT22;18267;52.234;7.444;2023-08-08T00:09:01;14.50;99.90
31661;DHT22;18267;52.234;7.444;2023-08-08T00:11:26;14.50;99.90
31661;DHT22;18267;52.234;7.444;2023-08-08T00:13:52;14.40;99.90
31661;DHT22;18267;52.234;7.444;2023-08-08T00:16:18;14.40;99.90
31661;DHT22;18267;52.234;7.444;2023-08-08T00:18:43;14.40;99.90
31661;DHT22;18267;52.234;7.444;2023-08-08T00:21:09;14.40;99.90
31661;DHT22;18267;52.234;7.444;2023-08-08T00:23:34;14.50;99.90
31661;DHT22;18267;52.234;7.444;2023-08-08T00:26:00;14.50;99.90
31661;DHT22;18267;52.234;7.444;2023-08-08T00:28:25;14.50;99.90
31661;DHT22;18267;52.234;7.444;2023-08-08T00:30:51;14.50;99.90
31661;DHT22;18267;52.234;7.444;2023-08-08T00:33:17;14.60;99.90
31661;DHT22;18267;52.234;7.444;2023-08-08T00:35:43;14.60;99.90
31661;DHT22;18267;52.234;7.444;2023-08-08T00:38:08;14.60;99.90
31661;DHT22;18267;52.234;7.444;2023-08-08T00:40:34;14.50;99.90
31661;DHT22;18267;52.234;7.444;2023-08-08T00:43:00;14.60;99.90
31661;DHT22;18267;52.234;7.444;2023-08-08T00:45:26;14.60;99.90
31661;DHT22;18267;52.234;7.444;2023-08-08T00:47:52;14.50;99.90
31661;DHT22;18267;52.234;7.444;2023-08-08T00:50:17;14.50;99.90
31661;DHT22;18267;52.234;7.444;2023-08-08T00:52:43;14.50;99.90
31661;DHT22;18267;52.234;7.444;2023-08-08T00:55:09;14.50;99.90
31661;DHT22;18267;52.234;7.444;2023-08-08T00:57:35;14.50;99.90
31661;DHT22;18267;52.234;7.444;2023-08-08T01:00:05;14.50;99.90
31661;DHT22;18267;52.234;7.444;2023-08-08T01:02:31;14.50;99.90
31661;DHT22;18267;52.234;7.444;2023-08-08T01:04:56;14.50;99.90
31661;DHT22;18267;52.234;7.444;2023-08-08T01:07:26;14.50;99.90
31661;DHT22;18267;52.234;7.444;2023-08-08T01:10:17;14.50;99.90
31661;DHT22;18267;52.234;7.444;2023-08-08T01:12:50;14.50;99.90
31661;DHT22;18267;52.234;7.444;2023-08-08T01:15:17;14.40;99.90
31661;DHT22;18267;52.234;7.444;2023-08-08T01:17:43;14.50;99.90
31661;DHT22;18267;52.234;7.444;2023-08-08T01:20:10;14.50;99.90
31661;DHT22;18267;52.234;7.444;2023-08-08T01:22:43;14.60;99.90
31661;DHT22;18267;52.234;7.444;2023-08-08T01:25:10;14.60;99.90
31661;DHT22;18267;52.234;7.444;2023-08-08T01:27:36;14.60;99.90
31661;DHT22;18267;52.234;7.444;2023-08-08T01:30:03;14.60;99.90
31661;DHT22;18267;52.234;7.444;2023-08-08T01:32:29;14.60;99.90
31661;DHT22;18267;52.234;7.444;2023-08-08T01:34:54;14.60;99.90
31661;DHT22;18267;52.234;7.444;2023-08-08T01:37:24;14.70;99.90
31661;DHT22;18267;52.234;7.444;2023-08-08T01:39:51;14.60;99.90
31661;DHT22;18267;52.234;7.444;2023-08-08T01:42:18;14.60;99.90
31661;DHT22;18267;52.234;7.444;2023-08-08T01:44:47;14.50;99.90
31661;DHT22;18267;52.234;7.444;2023-08-08T01:47:14;14.60;99.90
31661;DHT22;18267;52.234;7.444;2023-08-08T01:49:39;14.60;99.90
31661;DHT22;18267;52.234;7.444;2023-08-08T01:52:05;14.60;99.90
31661;DHT22;18267;52.234;7.444;2023-08-08T01:54:30;14.60;99.90
31661;DHT22;18267;52.234;7.444;2023-08-08T01:56:56;14.60;99.90
31661;DHT22;18267;52.234;7.444;2023-08-08T01:59:22;14.60;99.90
31661;DHT22;18267;52.234;7.444;2023-08-08T02:01:48;14.60;99.90
31661;DHT22;18267;52.234;7.444;2023-08-08T02:04:13;14.60;99.90
31661;DHT22;18267;52.234;7.444;2023-08-08T02:06:39;14.50;99.90
31661;DHT22;18267;52.234;7.444;2023-08-08T02:09:04;14.50;99.90
31661;DHT22;18267;52.234;7.444;2023-08-08T02:11:31;14.50;99.90
31661;DHT22;18267;52.234;7.444;2023-08-08T02:13:56;14.50;99.90
31661;DHT22;18267;52.234;7.444;2023-08-08T02:16:22;14.50;99.90
31661;DHT22;18267;52.234;7.444;2023-08-08T02:18:47;14.50;99.90
31661;DHT22;18267;52.234;7.444;2023-08-08T02:21:13;14.50;99.90
31661;DHT22;18267;52.234;7.444;2023-08-08T02:23:39;14.50;99.90
31661;DHT22;18267;52.234;7.444;2023-08-08T02:26:04;14.40;99.90
31661;DHT22;18267;52.234;7.444;2023-08-08T02:28:30;14.40;99.90
31661;DHT22;18267;52.234;7.444;2023-08-08T02:30:55;14.50;99.90
31661;DHT22;18267;52.234;7.444;2023-08-08T02:33:21;14.40;99.90
31661;DHT22;18267;52.234;7.444;2023-08-08T02:35:46;14.30;99.90
31661;DHT22;18267;52.234;7.444;2023-08-08T02:38:12;14.30;99.90
31661;DHT22;18267;52.234;7.444;2023-08-08T02:40:37;14.40;99.90
31661;DHT22;18267;52.234;7.444;2023-08-08T02:43:04;14.40;99.90
31661;DHT22;18267;52.234;7.444;2023-08-08T02:45:29;14.50;99.90
31661;DHT22;18267;52.234;7.444;2023-08-08T02:47:55;14.50;99.90
31661;DHT22;18267;52.234;7.444;2023-08-08T02:50:20;14.40;99.90
31661;DHT22;18267;52.234;7.444;2023-08-08T02:52:46;14.50;99.90
31661;DHT22;18267;52.234;7.444;2023-08-08T02:55:12;14.40;99.90
31661;DHT22;18267;52.234;7.444;2023-08-08T02:57:37;14.50;99.90
31661;DHT22;18267;52.234;7.444;2023-08-08T03:00:03;14.50;99.90
31661;DHT22;18267;52.234;7.444;2023-08-08T03:02:30;14.50;99.90
31661;DHT22;18267;52.234;7.444;2023-08-08T03:04:55;14.50;99.90
31661;DHT22;18267;52.234;7.444;2023-08-08T03:07:21;14.50;99.90
31661;DHT22;18267;52.234;7.444;2023-08-08T03:09:46;14.50;99.90
31661;DHT22;18267;52.234;7.444;2023-08-08T03:12:12;14.50;99.90
31661;DHT22;18267;52.234;7.444;2023-08-08T03:14:37;14.50;99.90
31661;DHT22;18267;52.234;7.444;2023-08-08T03:17:03;14.60;99.90
31661;DHT22;18267;52.234;7.444;2023-08-08T03:19:29;14.60;99.90
31661;DHT22;18267;52.234;7.444;2023-08-08T03:21:54;14.50;99.90
31661;DHT22;18267;52.234;7.444;2023-08-08T03:24:20;14.60;99.90
31661;DHT22;18267;52.234;7.444;2023-08-08T03:26:46;14.60;99.90
31661;DHT22;18267;52.234;7.444;2023-08-08T03:29:11;14.60;99.90
31661;DHT22;18267;52.234;7.444;2023-08-08T03:31:38;14.60;99.90
31661;DHT22;18267;52.234;7.444;2023-08-08T03:34:03;14.50;99.90
31661;DHT22;18267;52.234;7.444;2023-08-08T03:36:30;14.50;99.90
31661;DHT22;18267;52.234;7.444;2023-08-08T03:38:55;14.40;99.90
31661;DHT22;18267;52.234;7.444;2023-08-08T03:41:21;14.50;99.90
31661;DHT22;18267;52.234;7.444;2023-08-08T03:43:47;14.50;99.90
31661;DHT22;18267;52.234;7.444;2023-08-08T03:46:12;14.50;99.90
31661;DHT22;18267;52.234;7.444;2023-08-08T03:48:38;14.50;99.90
31661;DHT22;18267;52.234;7.444;2023-08-08T03:51:04;14.50;99.90
31661;DHT22;18267;52.234;7.444;2023-08-08T03:53:30;14.60;99.90
31661;DHT22;18267;52.234;7.444;2023-08-08T03:55:55;14.50;99.90
31661;DHT22;18267;52.234;7.444;2023-08-08T03:58:21;14.60;99.90
31661;DHT22;18267;52.234;7.444;2023-08-08T04:00:47;14.60;99.90
31661;DHT22;18267;52.234;7.444;2023-08-08T04:03:14;14.60;99.90
31661;DHT22;18267;52.234;7.444;2023-08-08T04:05:46;14.50;99.90
31661;DHT22;18267;52.234;7.444;2023-08-08T04:08:13;14.50;99.90
31661;DHT22;18267;52.234;7.444;2023-08-08T04:10:38;14.50;99.90
31661;DHT22;18267;52.234;7.444;2023-08-08T04:13:04;14.60;99.90
31661;DHT22;18267;52.234;7.444;2023-08-08T04:15:29;14.60;99.90
31661;DHT22;18267;52.234;7.444;2023-08-08T04:17:55;14.60;99.90
31661;DHT22;18267;52.234;7.444;2023-08-08T04:20:20;14.60;99.90
31661;DHT22;18267;52.234;7.444;2023-08-08T04:22:46;14.70;99.90
31661;DHT22;18267;52.234;7.444;2023-08-08T04:25:11;14.60;99.90
31661;DHT22;18267;52.234;7.444;2023-08-08T04:27:37;14.60;99.90
31661;DHT22;18267;52.234;7.444;2023-08-08T04:30:03;14.60;99.90
31661;DHT22;18267;52.234;7.444;2023-08-08T04:32:29;14.60;99.90
31661;DHT22;18267;52.234;7.444;2023-08-08T04:34:55;14.60;99.90
31661;DHT22;18267;52.234;7.444;2023-08-08T04:37:21;14.60;99.90
31661;DHT22;18267;52.234;7.444;2023-08-08T04:39:47;14.70;99.90
31661;DHT22;18267;52.234;7.444;2023-08-08T04:42:12;14.70;99.90
31661;DHT22;18267;52.234;7.444;2023-08-08T04:44:38;14.80;99.90
31661;DHT22;18267;52.234;7.444;2023-08-08T04:47:04;14.80;99.90
31661;DHT22;18267;52.234;7.444;2023-08-08T04:49:29;14.90;99.90
31661;DHT22;18267;52.234;7.444;2023-08-08T04:51:55;15.00;99.90
31661;DHT22;18267;52.234;7.444;2023-08-08T04:54:21;15.00;99.90
31661;DHT22;18267;52.234;7.444;2023-08-08T04:56:46;14.90;99.90
31661;DHT22;18267;52.234;7.444;2023-08-08T04:59:12;14.90;99.90
31661;DHT22;18267;52.234;7.444;2023-08-08T05:01:37;15.00;99.90
31661;DHT22;18267;52.234;7.444;2023-08-08T05:04:03;15.00;99.90
31661;DHT22;18267;52.234;7.444;2023-08-08T05:06:29;15.10;99.90
31661;DHT22;18267;52.234;7.444;2023-08-08T05:08:54;15.20;99.90
31661;DHT22;18267;52.234;7.444;2023-08-08T05:11:22;15.30;99.90
31661;DHT22;18267;52.234;7.444;2023-08-08T05:13:47;15.30;99.90
31661;DHT22;18267;52.234;7.444;2023-08-08T05:16:13;15.20;99.90
31661;DHT22;18267;52.234;7.444;2023-08-08T05:18:39;15.30;99.90
31661;DHT22;18267;52.234;7.444;2023-08-08T05:21:04;15.30;99.90
31661;DHT22;18267;52.234;7.444;2023-08-08T05:23:30;15.40;99.90
31661;DHT22;18267;52.234;7.444;2023-08-08T05:25:56;15.50;99.90
31661;DHT22;18267;52.234;7.444;2023-08-08T05:28:21;15.50;99.90
31661;DHT22;18267;52.234;7.444;2023-08-08T05:30:47;15.60;99.90
31661;DHT22;18267;52.234;7.444;2023-08-08T05:33:13;15.70;99.90
31661;DHT22;18267;52.234;7.444;2023-08-08T05:35:38;15.70;99.90
31661;DHT22;18267;52.234;7.444;2023-08-08T05:38:04;15.70;99.90
31661;DHT22;18267;52.234;7.444;2023-08-08T05:40:29;15.70;99.90
31661;DHT22;18267;52.234;7.444;2023-08-08T05:42:55;15.60;99.90
31661;DHT22;18267;52.234;7.444;2023-08-08T05:45:21;15.50;99.90
31661;DHT22;18267;52.234;7.444;2023-08-08T05:47:46;15.70;99.90
31661;DHT22;18267;52.234;7.444;2023-08-08T05:50:12;15.80;99.90
31661;DHT22;18267;52.234;7.444;2023-08-08T05:52:37;15.90;99.90
31661;DHT22;18267;52.234;7.444;2023-08-08T05:55:03;15.90;99.90
31661;DHT22;18267;52.234;7.444;2023-08-08T05:57:29;15.90;99.90
31661;DHT22;18267;52.234;7.444;2023-08-08T05:59:54;16.10;99.90
31661;DHT22;18267;52.234;7.444;2023-08-08T06:02:20;16.10;99.90
31661;DHT22;18267;52.234;7.444;2023-08-08T06:04:45;16.10;99.90
31661;DHT22;18267;52.234;7.444;2023-08-08T06:07:11;16.20;99.90
31661;DHT22;18267;52.234;7.444;2023-08-08T06:09:36;16.20;99.90
31661;DHT22;18267;52.234;7.444;2023-08-08T06:12:05;16.10;99.90
31661;DHT22;18267;52.234;7.444;2023-08-08T06:14:34;16.10;99.90
31661;DHT22;18267;52.234;7.444;2023-08-08T06:16:59;16.20;99.90
31661;DHT22;18267;52.234;7.444;2023-08-08T06:19:25;16.20;99.90
31661;DHT22;18267;52.234;7.444;2023-08-08T06:21:51;16.40;99.90
31661;DHT22;18267;52.234;7.444;2023-08-08T06:24:16;16.40;99.90
31661;DHT22;18267;52.234;7.444;2023-08-08T06:26:42;16.60;99.90
31661;DHT22;18267;52.234;7.444;2023-08-08T06:29:07;16.60;99.90
31661;DHT22;18267;52.234;7.444;2023-08-08T06:31:33;16.60;99.90
31661;DHT22;18267;52.234;7.444;2023-08-08T06:33:58;16.50;99.90
31661;DHT22;18267;52.234;7.444;2023-08-08T06:36:24;16.30;99.90
31661;DHT22;18267;52.234;7.444;2023-08-08T06:38:49;16.20;99.90
31661;DHT22;18267;52.234;7.444;2023-08-08T06:41:15;16.20;99.90
31661;DHT22;18267;52.234;7.444;2023-08-08T06:43:40;16.20;99.90
31661;DHT22;18267;52.234;7.444;2023-08-08T06:46:07;16.30;99.90
31661;DHT22;18267;52.234;7.444;2023-08-08T06:48:33;16.30;99.90
31661;DHT22;18267;52.234;7.444;2023-08-08T06:50:58;16.30;99.90
31661;DHT22;18267;52.234;7.444;2023-08-08T06:53:24;16.20;99.90
31661;DHT22;18267;52.234;7.444;2023-08-08T06:55:49;16.30;99.90
31661;DHT22;18267;52.234;7.444;2023-08-08T06:58:15;16.30;99.90
31661;DHT22;18267;52.234;7.444;2023-08-08T07:00:40;16.20;99.90
31661;DHT22;18267;52.234;7.444;2023-08-08T07:03:06;16.10;99.90
31661;DHT22;18267;52.234;7.444;2023-08-08T07:05:32;16.10;99.90
31661;DHT22;18267;52.234;7.444;2023-08-08T07:07:57;16.10;99.90
31661;DHT22;18267;52.234;7.444;2023-08-08T07:10:23;16.00;99.90
31661;DHT22;18267;52.234;7.444;2023-08-08T07:12:48;16.10;99.90
31661;DHT22;18267;52.234;7.444;2023-08-08T07:15:14;16.20;99.90
31661;DHT22;18267;52.234;7.444;2023-08-08T07:17:40;16.20;99.90
31661;DHT22;18267;52.234;7.444;2023-08-08T07:20:06;16.30;99.90
31661;DHT22;18267;52.234;7.444;2023-08-08T07:22:32;16.40;99.90
31661;DHT22;18267;52.234;7.444;2023-08-08T07:24:58;16.40;99.90
31661;DHT22;18267;52.234;7.444;2023-08-08T07:27:25;16.50;99.90
31661;DHT22;18267;52.234;7.444;2023-08-08T07:29:51;16.60;99.90
31661;DHT22;18267;52.234;7.444;2023-08-08T07:32:16;16.90;99.90
31661;DHT22;18267;52.234;7.444;2023-08-08T07:34:42;17.00;99.90
31661;DHT22;18267;52.234;7.444;2023-08-08T07:37:08;16.90;99.90
31661;DHT22;18267;52.234;7.444;2023-08-08T07:39:33;17.00;99.90
31661;DHT22;18267;52.234;7.444;2023-08-08T07:41:59;17.10;99.90
31661;DHT22;18267;52.234;7.444;2023-08-08T07:44:24;17.10;99.90
31661;DHT22;18267;52.234;7.444;2023-08-08T07:46:50;17.10;99.90
31661;DHT22;18267;52.234;7.444;2023-08-08T07:49:16;17.10;99.90
31661;DHT22;18267;52.234;7.444;2023-08-08T07:51:41;17.20;99.90
31661;DHT22;18267;52.234;7.444;2023-08-08T07:54:07;17.20;99.90
31661;DHT22;18267;52.234;7.444;2023-08-08T07:56:34;17.30;99.90
31661;DHT22;18267;52.234;7.444;2023-08-08T07:59:00;17.20;99.90
31661;DHT22;18267;52.234;7.444;2023-08-08T08:01:27;17.10;99.90
31661;DHT22;18267;52.234;7.444;2023-08-08T08:03:52;17.10;99.90
31661;DHT22;18267;52.234;7.444;2023-08-08T08:06:18;17.00;99.90
31661;DHT22;18267;52.234;7.444;2023-08-08T08:08:44;17.10;99.90
31661;DHT22;18267;52.234;7.444;2023-08-08T08:11:09;17.20;99.90
31661;DHT22;18267;52.234;7.444;2023-08-08T08:13:35;17.40;99.90
31661;DHT22;18267;52.234;7.444;2023-08-08T08:16:00;17.40;99.90
31661;DHT22;18267;52.234;7.444;2023-08-08T08:18:26;17.30;99.90
31661;DHT22;18267;52.234;7.444;2023-08-08T08:20:52;17.20;99.90
31661;DHT22;18267;52.234;7.444;2023-08-08T08:23:18;17.20;99.90
31661;DHT22;18267;52.234;7.444;2023-08-08T08:25:43;17.40;99.90
31661;DHT22;18267;52.234;7.444;2023-08-08T08:28:09;17.40;99.90
31661;DHT22;18267;52.234;7.444;2023-08-08T08:30:34;17.40;99.90
31661;DHT22;18267;52.234;7.444;2023-08-08T08:33:02;17.30;99.90
31661;DHT22;18267;52.234;7.444;2023-08-08T08:35:29;17.20;99.90
31661;DHT22;18267;52.234;7.444;2023-08-08T08:37:55;17.20;99.90
31661;DHT22;18267;52.234;7.444;2023-08-08T08:40:20;17.20;99.90
31661;DHT22;18267;52.234;7.444;2023-08-08T08:42:47;17.40;99.90
31661;DHT22;18267;52.234;7.444;2023-08-08T08:45:14;17.40;99.90
31661;DHT22;18267;52.234;7.444;2023-08-08T08:47:41;17.50;99.90
31661;DHT22;18267;52.234;7.444;2023-08-08T08:50:07;17.50;99.90
31661;DHT22;18267;52.234;7.444;2023-08-08T08:52:33;17.50;99.90
31661;DHT22;18267;52.234;7.444;2023-08-08T08:54:59;17.50;99.90
31661;DHT22;18267;52.234;7.444;2023-08-08T08:57:25;17.50;99.90
31661;DHT22;18267;52.234;7.444;2023-08-08T08:59:51;17.60;99.90
31661;DHT22;18267;52.234;7.444;2023-08-08T09:02:18;17.70;99.90
31661;DHT22;18267;52.234;7.444;2023-08-08T09:04:44;17.80;99.90
31661;DHT22;18267;52.234;7.444;2023-08-08T09:07:11;17.80;99.90
31661;DHT22;18267;52.234;7.444;2023-08-08T09:09:38;18.10;99.90
31661;DHT22;18267;52.234;7.444;2023-08-08T09:12:04;18.20;99.90
31661;DHT22;18267;52.234;7.444;2023-08-08T09:14:30;18.20;99.90
31661;DHT22;18267;52.234;7.444;2023-08-08T09:16:56;18.30;99.90
31661;DHT22;18267;52.234;7.444;2023-08-08T09:19:23;18.30;99.90
31661;DHT22;18267;52.234;7.444;2023-08-08T09:21:50;18.20;99.90
31661;DHT22;18267;52.234;7.444;2023-08-08T09:24:16;18.40;99.90
31661;DHT22;18267;52.234;7.444;2023-08-08T09:26:43;18.40;99.90
31661;DHT22;18267;52.234;7.444;2023-08-08T09:29:11;18.40;99.90
31661;DHT22;18267;52.234;7.444;2023-08-08T09:31:37;18.50;99.90
31661;DHT22;18267;52.234;7.444;2023-08-08T09:34:04;18.70;99.90
31661;DHT22;18267;52.234;7.444;2023-08-08T09:36:30;18.80;99.90
31661;DHT22;18267;52.234;7.444;2023-08-08T09:38:56;18.90;99.90
31661;DHT22;18267;52.234;7.444;2023-08-08T09:41:22;19.00;99.90
31661;DHT22;18267;52.234;7.444;2023-08-08T09:43:49;19.00;99.90
31661;DHT22;18267;52.234;7.444;2023-08-08T09:46:15;19.00;99.90
31661;DHT22;18267;52.234;7.444;2023-08-08T09:48:43;19.00;99.90
31661;DHT22;18267;52.234;7.444;2023-08-08T09:51:10;18.90;99.90
31661;DHT22;18267;52.234;7.444;2023-08-08T09:53:35;18.80;99.90
31661;DHT22;18267;52.234;7.444;2023-08-08T09:56:03;18.70;99.90
31661;DHT22;18267;52.234;7.444;2023-08-08T09:58:29;18.60;99.90
31661;DHT22;18267;52.234;7.444;2023-08-08T10:00:55;18.60;99.90
31661;DHT22;18267;52.234;7.444;2023-08-08T10:03:22;18.90;99.90
31661;DHT22;18267;52.234;7.444;2023-08-08T10:05:48;19.10;99.90
31661;DHT22;18267;52.234;7.444;2023-08-08T10:08:17;19.10;99.90
31661;DHT22;18267;52.234;7.444;2023-08-08T10:10:45;19.10;99.90
31661;DHT22;18267;52.234;7.444;2023-08-08T10:13:22;19.20;99.90
31661;DHT22;18267;52.234;7.444;2023-08-08T10:15:48;19.30;99.90
31661;DHT22;18267;52.234;7.444;2023-08-08T10:18:14;19.00;99.90
31661;DHT22;18267;52.234;7.444;2023-08-08T10:20:44;18.80;99.90
31661;DHT22;18267;52.234;7.444;2023-08-08T10:23:17;18.70;99.90
31661;DHT22;18267;52.234;7.444;2023-08-08T10:25:48;18.70;99.90
31661;DHT22;18267;52.234;7.444;2023-08-08T10:28:14;18.90;99.90
31661;DHT22;18267;52.234;7.444;2023-08-08T10:33:17;18.80;99.90
31661;DHT22;18267;52.234;7.444;2023-08-08T10:35:54;18.70;99.90
31661;DHT22;18267;52.234;7.444;2023-08-08T10:38:20;18.60;99.90
31661;DHT22;18267;52.234;7.444;2023-08-08T10:40:47;18.40;99.90
31661;DHT22;18267;52.234;7.444;2023-08-08T10:43:12;18.40;99.90
31661;DHT22;18267;52.234;7.444;2023-08-08T10:45:41;18.20;99.90
31661;DHT22;18267;52.234;7.444;2023-08-08T10:48:09;18.20;99.90
31661;DHT22;18267;52.234;7.444;2023-08-08T10:50:40;18.20;99.90
31661;DHT22;18267;52.234;7.444;2023-08-08T10:53:08;18.30;99.90
31661;DHT22;18267;52.234;7.444;2023-08-08T10:55:36;18.30;99.90
31661;DHT22;18267;52.234;7.444;2023-08-08T10:58:07;18.20;99.90
31661;DHT22;18267;52.234;7.444;2023-08-08T11:00:34;18.40;99.90
31661;DHT22;18267;52.234;7.444;2023-08-08T11:03:01;18.30;99.90
31661;DHT22;18267;52.234;7.444;2023-08-08T11:05:31;18.60;99.90
31661;DHT22;18267;52.234;7.444;2023-08-08T11:07:59;18.70;99.90
31661;DHT22;18267;52.234;7.444;2023-08-08T11:10:25;18.70;99.90
31661;DHT22;18267;52.234;7.444;2023-08-08T11:13:06;18.70;99.90
31661;DHT22;18267;52.234;7.444;2023-08-08T11:15:33;18.50;99.90
31661;DHT22;18267;52.234;7.444;2023-08-08T11:18:00;18.40;99.90
31661;DHT22;18267;52.234;7.444;2023-08-08T11:20:31;18.30;99.90
31661;DHT22;18267;52.234;7.444;2023-08-08T11:22:57;18.30;99.90
31661;DHT22;18267;52.234;7.444;2023-08-08T11:25:25;18.30;99.90
31661;DHT22;18267;52.234;7.444;2023-08-08T11:27:52;18.20;99.90
31661;DHT22;18267;52.234;7.444;2023-08-08T11:30:19;18.10;99.90
31661;DHT22;18267;52.234;7.444;2023-08-08T11:32:46;18.00;99.90
31661;DHT22;18267;52.234;7.444;2023-08-08T11:35:15;17.90;99.90
31661;DHT22;18267;52.234;7.444;2023-08-08T11:37:41;18.00;99.90
31661;DHT22;18267;52.234;7.444;2023-08-08T11:40:07;18.10;99.90
31661;DHT22;18267;52.234;7.444;2023-08-08T11:42:34;18.10;99.90
31661;DHT22;18267;52.234;7.444;2023-08-08T11:45:00;18.40;99.90
31661;DHT22;18267;52.234;7.444;2023-08-08T11:47:25;18.60;99.90
31661;DHT22;18267;52.234;7.444;2023-08-08T11:49:51;18.70;99.90
31661;DHT22;18267;52.234;7.444;2023-08-08T11:52:19;18.80;99.90
31661;DHT22;18267;52.234;7.444;2023-08-08T11:54:50;19.00;99.90
31661;DHT22;18267;52.234;7.444;2023-08-08T11:57:19;19.10;99.90
31661;DHT22;18267;52.234;7.444;2023-08-08T12:00:18;19.10;99.90
31661;DHT22;18267;52.234;7.444;2023-08-08T12:02:56;18.70;99.90
31661;DHT22;18267;52.234;7.444;2023-08-08T12:05:25;18.30;99.90
31661;DHT22;18267;52.234;7.444;2023-08-08T12:07:51;18.00;99.90
31661;DHT22;18267;52.234;7.444;2023-08-08T12:10:23;17.80;99.90
31661;DHT22;18267;52.234;7.444;2023-08-08T12:12:55;18.00;99.90
31661;DHT22;18267;52.234;7.444;2023-08-08T12:15:22;18.20;99.90
31661;DHT22;18267;52.234;7.444;2023-08-08T12:17:48;18.40;99.90
31661;DHT22;18267;52.234;7.444;2023-08-08T12:20:15;18.60;99.90
31661;DHT22;18267;52.234;7.444;2023-08-08T12:22:41;18.50;99.90
31661;DHT22;18267;52.234;7.444;2023-08-08T12:25:06;18.40;99.90
31661;DHT22;18267;52.234;7.444;2023-08-08T12:27:33;18.40;99.90
31661;DHT22;18267;52.234;7.444;2023-08-08T12:29:59;18.50;99.90
31661;DHT22;18267;52.234;7.444;2023-08-08T12:32:26;18.50;99.90
31661;DHT22;18267;52.234;7.444;2023-08-08T12:34:54;18.40;99.90
31661;DHT22;18267;52.234;7.444;2023-08-08T12:37:19;18.50;99.90
31661;DHT22;18267;52.234;7.444;2023-08-08T12:39:45;18.60;99.90
31661;DHT22;18267;52.234;7.444;2023-08-08T12:42:11;18.60;99.90
31661;DHT22;18267;52.234;7.444;2023-08-08T12:44:36;18.70;99.90
31661;DHT22;18267;52.234;7.444;2023-08-08T12:47:02;18.70;99.90
31661;DHT22;18267;52.234;7.444;2023-08-08T12:49:27;18.90;99.90
31661;DHT22;18267;52.234;7.444;2023-08-08T12:51:53;19.20;99.90
31661;DHT22;18267;52.234;7.444;2023-08-08T12:54:21;19.40;99.90
31661;DHT22;18267;52.234;7.444;2023-08-08T12:56:47;19.60;99.90
31661;DHT22;18267;52.234;7.444;2023-08-08T12:59:12;19.70;99.90
31661;DHT22;18267;52.234;7.444;2023-08-08T13:01:38;19.80;99.90
31661;DHT22;18267;52.234;7.444;2023-08-08T13:04:04;19.90;99.90
31661;DHT22;18267;52.234;7.444;2023-08-08T13:06:30;19.70;99.90
31661;DHT22;18267;52.234;7.444;2023-08-08T13:08:55;19.50;99.90
31661;DHT22;18267;52.234;7.444;2023-08-08T13:11:21;19.20;99.90
31661;DHT22;18267;52.234;7.444;2023-08-08T13:13:47;19.10;99.90
31661;DHT22;18267;52.234;7.444;2023-08-08T13:16:12;19.10;99.90
31661;DHT22;18267;52.234;7.444;2023-08-08T13:18:39;19.10;99.90
31661;DHT22;18267;52.234;7.444;2023-08-08T13:21:05;19.00;99.90
31661;DHT22;18267;52.234;7.444;2023-08-08T13:23:32;18.90;99.90
31661;DHT22;18267;52.234;7.444;2023-08-08T13:25:57;18.90;99.90
31661;DHT22;18267;52.234;7.444;2023-08-08T13:28:23;18.90;99.90
31661;DHT22;18267;52.234;7.444;2023-08-08T13:30:49;19.00;99.90
31661;DHT22;18267;52.234;7.444;2023-08-08T13:33:14;19.20;99.90
31661;DHT22;18267;52.234;7.444;2023-08-08T13:35:40;19.20;99.90
31661;DHT22;18267;52.234;7.444;2023-08-08T13:38:05;19.30;99.90
31661;DHT22;18267;52.234;7.444;2023-08-08T13:40:33;19.40;99.90
31661;DHT22;18267;52.234;7.444;2023-08-08T13:42:58;19.40;99.90
31661;DHT22;18267;52.234;7.444;2023-08-08T13:45:24;19.30;99.90
31661;DHT22;18267;52.234;7.444;2023-08-08T13:47:49;19.40;99.90
31661;DHT22;18267;52.234;7.444;2023-08-08T13:50:15;19.50;99.90
31661;DHT22;18267;52.234;7.444;2023-08-08T13:52:41;19.60;99.90
31661;DHT22;18267;52.234;7.444;2023-08-08T13:55:07;19.70;99.90
31661;DHT22;18267;52.234;7.444;2023-08-08T13:57:34;19.60;99.90
31661;DHT22;18267;52.234;7.444;2023-08-08T14:00:00;19.50;99.90
31661;DHT22;18267;52.234;7.444;2023-08-08T14:02:26;19.30;99.90
31661;DHT22;18267;52.234;7.444;2023-08-08T14:04:51;19.30;99.90
31661;DHT22;18267;52.234;7.444;2023-08-08T14:07:18;19.30;99.90
31661;DHT22;18267;52.234;7.444;2023-08-08T14:09:43;19.40;99.90
31661;DHT22;18267;52.234;7.444;2023-08-08T14:12:09;19.40;99.90
31661;DHT22;18267;52.234;7.444;2023-08-08T14:14:34;19.30;99.90
31661;DHT22;18267;52.234;7.444;2023-08-08T14:17:03;19.20;99.90
31661;DHT22;18267;52.234;7.444;2023-08-08T14:19:28;19.00;99.90
31661;DHT22;18267;52.234;7.444;2023-08-08T14:21:54;18.90;99.90
31661;DHT22;18267;52.234;7.444;2023-08-08T14:24:19;18.90;99.90
31661;DHT22;18267;52.234;7.444;2023-08-08T14:26:45;18.90;99.90
31661;DHT22;18267;52.234;7.444;2023-08-08T14:29:11;18.80;99.90
31661;DHT22;18267;52.234;7.444;2023-08-08T14:31:36;18.70;99.90
31661;DHT22;18267;52.234;7.444;2023-08-08T14:34:02;18.90;99.90
31661;DHT22;18267;52.234;7.444;2023-08-08T14:36:28;19.00;99.90
31661;DHT22;18267;52.234;7.444;2023-08-08T14:38:54;19.10;99.90
31661;DHT22;18267;52.234;7.444;2023-08-08T14:41:20;19.20;99.90
31661;DHT22;18267;52.234;7.444;2023-08-08T14:43:45;19.20;99.90
31661;DHT22;18267;52.234;7.444;2023-08-08T14:46:11;19.30;99.90
31661;DHT22;18267;52.234;7.444;2023-08-08T14:48:36;19.30;99.90
31661;DHT22;18267;52.234;7.444;2023-08-08T14:51:02;19.40;99.90
31661;DHT22;18267;52.234;7.444;2023-08-08T14:53:28;19.30;99.90
31661;DHT22;18267;52.234;7.444;2023-08-08T14:55:54;19.30;99.90
31661;DHT22;18267;52.234;7.444;2023-08-08T14:58:20;19.40;99.90
31661;DHT22;18267;52.234;7.444;2023-08-08T15:00:45;19.30;99.90
31661;DHT22;18267;52.234;7.444;2023-08-08T15:03:11;19.30;99.90
31661;DHT22;18267;52.234;7.444;2023-08-08T15:05:39;19.40;99.90
31661;DHT22;18267;52.234;7.444;2023-08-08T15:08:05;19.30;99.90
31661;DHT22;18267;52.234;7.444;2023-08-08T15:10:31;19.40;99.90
31661;DHT22;18267;52.234;7.444;2023-08-08T15:12:56;19.50;99.90
31661;DHT22;18267;52.234;7.444;2023-08-08T15:15:22;19.60;99.90
31661;DHT22;18267;52.234;7.444;2023-08-08T15:17:49;19.60;99.90
31661;DHT22;18267;52.234;7.444;2023-08-08T15:20:15;19.50;99.90
31661;DHT22;18267;52.234;7.444;2023-08-08T15:22:41;19.40;99.90
31661;DHT22;18267;52.234;7.444;2023-08-08T15:25:06;19.30;99.90
31661;DHT22;18267;52.234;7.444;2023-08-08T15:27:32;19.10;99.90